Time;durP1;ratioP1;P1;durP2;ratioP2;P2;SDS_P1;SDS_P2;PMS_P1;PMS_P2;Temp;Humidity;BMP_temperature;BMP_pressure;BME280_temperature;BME280_humidity;BME280_pressure;Samples;Min_cycle;Max_cycle;Signal;HPM_P1;HPM_P2
2021/01/06 00:00:01;;;;;;;27.55;13.25;;;2.70;99.90;;;;;;5003483;28;20423;-60
2021/01/06 00:02:26;;;;;;;26.05;13.18;;;2.70;99.90;;;;;;5005988;28;20413;-61
2021/01/06 00:04:52;;;;;;;25.48;12.55;;;2.70;99.90;;;;;;5005956;28;20405;-60
2021/01/06 00:07:18;;;;;;;27.20;13.33;;;2.80;99.90;;;;;;5009974;28;20389;-57
2021/01/06 00:09:44;;;;;;;25.30;13.90;;;3.20;99.90;;;;;;5008161;28;20405;-60
2021/01/06 00:12:09;;;;;;;28.17;13.52;;;2.70;99.90;;;;;;5001564;28;20831;-58
2021/01/06 00:14:35;;;;;;;24.50;12.40;;;3.00;99.90;;;;;;5005698;28;20496;-60
2021/01/06 00:17:01;;;;;;;25.47;12.70;;;2.60;99.90;;;;;;5001429;28;20386;-60
2021/01/06 00:19:26;;;;;;;26.13;13.17;;;2.60;99.90;;;;;;5005085;28;20527;-59
2021/01/06 00:21:52;;;;;;;27.05;13.15;;;2.70;99.90;;;;;;5010367;28;20384;-60
2021/01/06 00:24:18;;;;;;;24.20;12.93;;;2.80;99.90;;;;;;5004665;28;20393;-60
2021/01/06 00:26:44;;;;;;;26.38;11.93;;;3.70;99.90;;;;;;5007155;28;20442;-60
2021/01/06 00:29:10;;;;;;;25.30;12.35;;;4.60;99.90;;;;;;5009318;28;20405;-60
2021/01/06 00:31:41;;;;;;;24.85;12.80;;;3.40;99.90;;;;;;5007591;28;20432;-60
2021/01/06 00:34:07;;;;;;;21.90;12.10;;;2.80;99.90;;;;;;5000740;28;20404;-58
2021/01/06 00:36:34;;;;;;;25.10;12.23;;;2.80;99.90;;;;;;5008293;28;20397;-60
2021/01/06 00:38:59;;;;;;;26.47;12.63;;;4.30;99.90;;;;;;5008280;28;20489;-59
2021/01/06 00:41:35;;;;;;;23.60;12.30;;;2.80;99.90;;;;;;5006267;28;20408;-60
2021/01/06 00:44:02;;;;;;;23.52;11.77;;;2.90;99.90;;;;;;5003556;28;20392;-59
2021/01/06 00:46:33;;;;;;;22.08;12.35;;;2.80;99.90;;;;;;5006168;28;20878;-59
2021/01/06 00:49:00;;;;;;;22.20;11.70;;;2.70;99.90;;;;;;5001968;28;20391;-60
2021/01/06 00:51:27;;;;;;;22.20;11.98;;;2.70;99.90;;;;;;5006670;28;20416;-59
2021/01/06 00:53:53;;;;;;;22.80;11.55;;;5.60;99.90;;;;;;5005419;28;20396;-60
2021/01/06 00:56:30;;;;;;;22.85;12.00;;;3.40;99.90;;;;;;5008560;28;20389;-57
2021/01/06 00:58:56;;;;;;;21.65;11.43;;;4.00;99.90;;;;;;5001271;28;20958;-60
2021/01/06 01:01:24;;;;;;;24.88;12.10;;;3.90;99.90;;;;;;5003602;28;20406;-59
2021/01/06 01:03:50;;;;;;;21.90;11.35;;;2.60;99.90;;;;;;5008555;28;20953;-60
2021/01/06 01:06:27;;;;;;;19.35;10.77;;;5.00;99.90;;;;;;5001969;28;20492;-57
2021/01/06 01:08:54;;;;;;;20.00;10.80;;;0.40;99.90;;;;;;5008097;28;20396;-60
2021/01/06 01:11:22;;;;;;;19.40;10.53;;;2.60;99.90;;;;;;5006992;28;20412;-57
2021/01/06 01:13:49;;;;;;;19.30;10.85;;;2.50;99.90;;;;;;5009013;28;20467;-60
2021/01/06 01:16:14;;;;;;;20.67;10.93;;;4.20;99.90;;;;;;5008989;28;20768;-60
2021/01/06 01:18:40;;;;;;;19.60;10.48;;;4.10;99.90;;;;;;5006982;28;21177;-60
2021/01/06 01:21:06;;;;;;;24.07;11.47;;;4.50;99.90;;;;;;5009066;28;20388;-60
2021/01/06 01:23:31;;;;;;;19.47;11.47;;;2.40;99.90;;;;;;5008087;28;20851;-60
2021/01/06 01:25:57;;;;;;;20.73;11.10;;;2.40;99.90;;;;;;5008981;28;20440;-60
2021/01/06 01:28:25;;;;;;;19.95;11.00;;;4.80;99.90;;;;;;5011816;28;20418;-60
2021/01/06 01:30:51;;;;;;;21.40;10.00;;;2.50;99.90;;;;;;5012879;28;20463;-60
2021/01/06 01:33:19;;;;;;;20.30;10.90;;;2.50;99.90;;;;;;5010669;28;20393;-57
2021/01/06 01:35:44;;;;;;;21.52;11.25;;;5.10;99.90;;;;;;5011991;28;20381;-60
2021/01/06 01:38:22;;;;;;;21.02;10.02;;;2.70;99.90;;;;;;5012998;28;20966;-60
2021/01/06 01:40:57;;;;;;;20.25;10.00;;;5.10;99.90;;;;;;5011162;28;20407;-60
2021/01/06 01:43:24;;;;;;;21.45;10.63;;;2.70;99.90;;;;;;5007367;28;20420;-59
2021/01/06 01:45:49;;;;;;;19.92;10.30;;;4.70;99.90;;;;;;5011918;28;20404;-60
2021/01/06 01:48:44;;;;;;;20.23;11.02;;;2.90;99.90;;;;;;5011596;28;20399;-59
2021/01/06 01:51:30;;;;;;;19.95;10.60;;;2.70;99.90;;;;;;5011762;28;20924;-59
2021/01/06 01:54:04;;;;;;;20.95;10.80;;;2.60;99.90;;;;;;5011256;28;20924;-59
2021/01/06 01:56:42;;;;;;;15.90;9.15;;;2.60;99.90;;;;;;5010185;28;20416;-60
2021/01/06 01:59:15;;;;;;;20.88;10.88;;;2.60;99.90;;;;;;5011644;28;20409;-60
2021/01/06 02:01:40;;;;;;;21.08;10.30;;;5.30;99.90;;;;;;5012388;28;20786;-59
2021/01/06 02:04:14;;;;;;;20.03;10.20;;;5.30;99.90;;;;;;5012326;28;20409;-59
2021/01/06 02:06:52;;;;;;;19.00;9.70;;;5.10;99.90;;;;;;5011829;28;20408;-59
2021/01/06 02:09:37;;;;;;;19.60;10.10;;;2.60;99.90;;;;;;5013154;28;20383;-57
2021/01/06 02:12:13;;;;;;;17.63;9.85;;;3.30;99.90;;;;;;5012307;28;20494;-61
2021/01/06 02:14:59;;;;;;;21.08;10.57;;;2.70;99.90;;;;;;5012245;28;20476;-60
2021/01/06 02:17:25;;;;;;;19.40;10.10;;;4.90;99.90;;;;;;5010701;28;20388;-60
2021/01/06 02:19:50;;;;;;;20.40;10.20;;;3.40;99.90;;;;;;5012602;28;20379;-60
2021/01/06 02:22:20;;;;;;;18.43;10.30;;;4.60;99.90;;;;;;5011031;28;20393;-60
2021/01/06 02:24:48;;;;;;;17.90;10.20;;;2.90;99.90;;;;;;5012521;28;20847;-60
2021/01/06 02:27:15;;;;;;;20.50;10.65;;;3.70;99.90;;;;;;5011550;28;20484;-59
2021/01/06 02:29:41;;;;;;;17.92;10.25;;;2.90;99.90;;;;;;5011288;28;20495;-60
2021/01/06 02:32:08;;;;;;;18.88;9.85;;;2.70;99.90;;;;;;5012680;28;20540;-60
2021/01/06 02:34:38;;;;;;;19.60;10.00;;;4.10;99.90;;;;;;5010638;28;20405;-60
2021/01/06 02:37:05;;;;;;;18.83;10.48;;;2.60;99.90;;;;;;5011679;28;20843;-60
2021/01/06 02:39:31;;;;;;;17.50;9.77;;;2.40;99.90;;;;;;5010307;28;20416;-59
2021/01/06 02:41:56;;;;;;;19.70;9.90;;;4.80;99.90;;;;;;5012381;28;20393;-59
2021/01/06 02:44:22;;;;;;;18.93;10.73;;;4.30;99.90;;;;;;5010915;28;20754;-59
2021/01/06 02:46:49;;;;;;;18.00;10.00;;;3.40;99.90;;;;;;5011469;28;20400;-60
2021/01/06 02:49:15;;;;;;;22.05;11.43;;;2.40;99.90;;;;;;5011105;28;20408;-60
2021/01/06 02:51:49;;;;;;;20.83;11.32;;;2.30;99.90;;;;;;5008590;28;20477;-60
2021/01/06 02:54:20;;;;;;;19.77;10.77;;;2.40;99.90;;;;;;5011042;28;20447;-60
2021/01/06 02:56:48;;;;;;;19.92;10.88;;;2.30;99.90;;;;;;5011975;28;20830;-59
2021/01/06 02:59:15;;;;;;;21.45;11.00;;;2.20;99.90;;;;;;5012305;28;20726;-59
2021/01/06 03:01:43;;;;;;;23.45;11.55;;;2.30;99.90;;;;;;5009757;28;20421;-60
2021/01/06 03:04:17;;;;;;;20.15;10.80;;;2.10;99.90;;;;;;5010892;28;20412;-59
2021/01/06 03:06:42;;;;;;;21.83;10.63;;;3.40;99.90;;;;;;5010243;28;20392;-59
2021/01/06 03:09:28;;;;;;;25.13;10.87;;;3.40;99.90;;;;;;5011984;28;20384;-59
2021/01/06 03:11:55;;;;;;;19.70;10.97;;;2.20;99.90;;;;;;4999939;28;20495;-60
2021/01/06 03:14:22;;;;;;;22.50;11.23;;;2.20;99.90;;;;;;5009532;28;21036;-57
2021/01/06 03:16:49;;;;;;;22.52;11.50;;;4.50;99.90;;;;;;5008124;28;20415;-59
2021/01/06 03:19:15;;;;;;;23.13;11.70;;;2.30;99.90;;;;;;5009675;28;20423;-59
2021/01/06 03:21:43;;;;;;;22.40;11.50;;;2.30;99.90;;;;;;5010311;28;20850;-59
2021/01/06 03:24:11;;;;;;;22.63;11.60;;;4.90;99.90;;;;;;5009883;28;20424;-60
2021/01/06 03:26:39;;;;;;;18.10;10.60;;;2.70;99.90;;;;;;5010707;28;20416;-59
2021/01/06 03:29:05;;;;;;;19.88;10.32;;;2.30;99.90;;;;;;5010495;28;20404;-59
2021/01/06 03:31:43;;;;;;;21.58;10.68;;;5.00;99.90;;;;;;5009589;28;20475;-60
2021/01/06 03:34:24;;;;;;;22.17;11.23;;;4.00;99.90;;;;;;5011322;28;20755;-59
2021/01/06 03:37:25;;;;;;;18.77;10.55;;;2.40;99.90;;;;;;5009955;28;20408;-58
2021/01/06 03:39:59;;;;;;;21.23;11.30;;;2.40;99.90;;;;;;5006094;28;20809;-59
2021/01/06 03:42:27;;;;;;;21.63;10.90;;;2.60;99.90;;;;;;5010509;28;20381;-60
2021/01/06 03:44:53;;;;;;;22.10;11.40;;;4.70;99.90;;;;;;5011321;28;20385;-60
2021/01/06 03:47:27;;;;;;;22.77;11.15;;;2.60;99.90;;;;;;5008886;28;20408;-57
2021/01/06 03:50:22;;;;;;;21.10;10.85;;;2.60;99.90;;;;;;5010652;28;20384;-59
2021/01/06 03:53:09;;;;;;;21.63;10.93;;;2.40;99.90;;;;;;5011188;28;20397;-59
2021/01/06 03:55:52;;;;;;;20.65;10.70;;;2.20;99.90;;;;;;5008287;28;20414;-59
2021/01/06 03:58:35;;;;;;;23.20;10.88;;;2.20;99.90;;;;;;5010349;28;20457;-59
2021/01/06 04:01:33;;;;;;;21.25;10.85;;;2.10;99.90;;;;;;5010787;28;20466;-60
2021/01/06 04:04:08;;;;;;;23.33;12.32;;;2.20;99.90;;;;;;5006389;28;20417;-60
2021/01/06 04:06:36;;;;;;;26.52;11.77;;;3.10;99.90;;;;;;5008376;28;20491;-59
2021/01/06 04:09:05;;;;;;;21.48;11.18;;;4.10;99.90;;;;;;5010261;28;20492;-59
2021/01/06 04:11:35;;;;;;;21.73;10.98;;;2.20;99.90;;;;;;5007814;28;20436;-59
2021/01/06 04:14:00;;;;;;;20.40;10.90;;;3.70;99.90;;;;;;5010656;28;20814;-60
2021/01/06 04:16:27;;;;;;;22.70;11.60;;;3.60;99.90;;;;;;5008680;28;20492;-60
2021/01/06 04:18:53;;;;;;;22.77;11.00;;;2.10;99.90;;;;;;5010668;28;20843;-59
2021/01/06 04:21:20;;;;;;;19.38;9.73;;;2.20;99.90;;;;;;5010590;28;20465;-57
2021/01/06 04:23:46;;;;;;;21.45;9.80;;;2.20;99.90;;;;;;5008650;28;20401;-60
2021/01/06 04:26:13;;;;;;;18.73;10.38;;;3.60;99.90;;;;;;5009504;28;20488;-58
2021/01/06 04:28:40;;;;;;;20.20;10.45;;;3.80;99.90;;;;;;5009561;28;20396;-60
2021/01/06 04:31:20;;;;;;;21.80;10.45;;;2.90;99.90;;;;;;5009152;28;20424;-59
2021/01/06 04:33:53;;;;;;;17.75;9.70;;;3.60;99.90;;;;;;5010039;28;20404;-59
2021/01/06 04:36:25;;;;;;;18.08;10.13;;;2.30;99.90;;;;;;5009915;28;20901;-57
2021/01/06 04:38:53;;;;;;;20.73;10.38;;;2.40;99.90;;;;;;5009609;28;20408;-59
2021/01/06 04:41:39;;;;;;;18.40;9.77;;;2.40;99.90;;;;;;5010263;28;20498;-57
2021/01/06 04:44:19;;;;;;;21.23;9.82;;;2.50;99.90;;;;;;5008722;28;20904;-59
2021/01/06 04:47:09;;;;;;;17.77;9.15;;;2.40;99.90;;;;;;5003455;28;20381;-60
2021/01/06 04:49:47;;;;;;;15.77;9.02;;;2.20;99.90;;;;;;5008490;28;20411;-59
2021/01/06 04:52:42;;;;;;;16.10;9.30;;;2.20;99.90;;;;;;5010186;28;20885;-60
2021/01/06 04:55:26;;;;;;;19.50;9.38;;;2.10;99.90;;;;;;5007725;28;20813;-60
2021/01/06 04:58:21;;;;;;;15.63;9.18;;;2.00;99.90;;;;;;5010133;28;20393;-60
2021/01/06 05:00:56;;;;;;;17.95;9.55;;;2.10;99.90;;;;;;5011403;28;20424;-60
2021/01/06 05:03:37;;;;;;;15.57;8.30;;;4.20;99.90;;;;;;5011854;28;20420;-57
2021/01/06 05:06:02;;;;;;;17.45;9.38;;;2.20;99.90;;;;;;5014266;28;20384;-60
2021/01/06 05:08:47;;;;;;;17.42;9.00;;;3.40;99.90;;;;;;5011954;28;20905;-60
2021/01/06 05:11:24;;;;;;;15.97;8.77;;;2.10;99.90;;;;;;5014115;28;20420;-59
2021/01/06 05:14:08;;;;;;;19.50;8.83;;;2.20;99.90;;;;;;5012646;28;20457;-57
2021/01/06 05:16:46;;;;;;;15.63;8.77;;;2.20;99.90;;;;;;5011042;28;20389;-59
2021/01/06 05:19:29;;;;;;;14.75;8.25;;;2.20;99.90;;;;;;5012478;28;20427;-59
2021/01/06 05:21:55;;;;;;;14.32;8.27;;;2.40;99.90;;;;;;5014027;28;20392;-59
2021/01/06 05:24:35;;;;;;;15.77;7.63;;;2.10;99.90;;;;;;5012218;28;20398;-57
2021/01/06 05:27:12;;;;;;;13.97;7.37;;;2.10;99.90;;;;;;5013795;28;20568;-60
2021/01/06 05:29:39;;;;;;;14.52;7.80;;;4.90;99.90;;;;;;5009250;28;20960;-60
2021/01/06 05:32:05;;;;;;;13.63;8.00;;;4.30;99.90;;;;;;5013766;28;20459;-60
2021/01/06 05:34:34;;;;;;;14.50;7.68;;;2.70;99.90;;;;;;5011986;28;20419;-59
2021/01/06 05:37:00;;;;;;;14.68;7.60;;;3.20;99.90;;;;;;5012772;28;20403;-60
2021/01/06 05:39:28;;;;;;;12.73;7.95;;;2.20;99.90;;;;;;5011250;28;20405;-59
2021/01/06 05:42:04;;;;;;;14.30;7.80;;;2.20;99.90;;;;;;5013411;28;20385;-59
2021/01/06 05:44:31;;;;;;;13.25;7.40;;;2.90;99.90;;;;;;5012064;28;20446;-59
2021/01/06 05:46:58;;;;;;;14.30;7.30;;;2.10;99.90;;;;;;5013870;28;20388;-60
2021/01/06 05:49:28;;;;;;;15.82;7.90;;;4.70;99.90;;;;;;5011492;28;20400;-57
2021/01/06 05:51:57;;;;;;;13.30;7.85;;;3.00;99.90;;;;;;5012851;28;20415;-60
2021/01/06 05:54:41;;;;;;;13.55;7.47;;;5.10;99.90;;;;;;5012567;28;20398;-56
2021/01/06 05:57:13;;;;;;;14.27;7.75;;;2.20;99.90;;;;;;5011751;28;20427;-60
2021/01/06 05:59:51;;;;;;;13.82;7.43;;;2.40;99.90;;;;;;5010706;28;20403;-61
2021/01/06 06:02:47;;;;;;;13.93;7.40;;;2.70;99.90;;;;;;5006856;28;21042;-59
2021/01/06 06:05:36;;;;;;;13.15;7.68;;;2.70;99.90;;;;;;5018516;28;21751;-61
2021/01/06 06:08:17;;;;;;;12.32;6.90;;;3.90;99.90;;;;;;5010592;28;20397;-60
2021/01/06 06:11:04;;;;;;;13.10;6.90;;;3.20;99.90;;;;;;5010884;28;20464;-60
2021/01/06 06:13:53;;;;;;;13.93;7.40;;;3.00;99.90;;;;;;5009241;28;20392;-59
2021/01/06 06:16:39;;;;;;;13.65;7.10;;;2.30;99.90;;;;;;5011543;28;20463;-59
2021/01/06 06:19:35;;;;;;;13.45;6.88;;;2.20;99.90;;;;;;5009463;28;20730;-59
2021/01/06 06:22:22;;;;;;;12.93;7.10;;;2.10;99.90;;;;;;5010890;28;20412;-59
2021/01/06 06:25:16;;;;;;;13.60;7.35;;;3.60;99.90;;;;;;5006575;28;20430;-60
2021/01/06 06:27:58;;;;;;;12.93;7.30;;;2.10;99.90;;;;;;5009817;28;20881;-59
2021/01/06 06:30:35;;;;;;;12.60;6.50;;;2.20;99.90;;;;;;4997635;28;20452;-57
2021/01/06 06:33:01;;;;;;;13.20;6.90;;;5.00;99.90;;;;;;5011680;28;20393;-60
2021/01/06 06:35:35;;;;;;;13.38;7.10;;;2.30;99.90;;;;;;5000965;28;20391;-59
2021/01/06 06:38:05;;;;;;;11.35;6.90;;;3.40;99.90;;;;;;5008425;28;20413;-59
2021/01/06 06:40:57;;;;;;;12.93;7.53;;;3.80;99.90;;;;;;5004858;28;20389;-60
2021/01/06 06:43:34;;;;;;;14.00;6.95;;;2.40;99.90;;;;;;5004112;28;20400;-57
2021/01/06 06:46:15;;;;;;;12.57;7.28;;;2.50;99.90;;;;;;5010586;28;20504;-59
2021/01/06 06:49:03;;;;;;;12.70;7.00;;;3.80;99.90;;;;;;5009855;28;21065;-59
2021/01/06 06:51:36;;;;;;;10.93;6.40;;;2.50;99.90;;;;;;5004804;28;20787;-59
2021/01/06 06:54:24;;;;;;;10.70;6.13;;;4.80;99.90;;;;;;5011371;28;20813;-59
2021/01/06 06:56:49;;;;;;;14.52;7.25;;;2.30;99.90;;;;;;4998034;28;21004;-58
2021/01/06 06:59:23;;;;;;;11.30;6.33;;;4.70;99.90;;;;;;5008215;28;20534;-59
2021/01/06 07:01:50;;;;;;;12.40;6.70;;;3.50;99.90;;;;;;5010375;28;20409;-60
2021/01/06 07:04:25;;;;;;;11.15;6.25;;;3.70;99.90;;;;;;5011531;28;20381;-58
2021/01/06 07:06:59;;;;;;;10.93;6.57;;;4.60;99.90;;;;;;5009340;28;20404;-60
2021/01/06 07:09:33;;;;;;;12.03;6.30;;;5.20;99.90;;;;;;5007669;28;20400;-56
2021/01/06 07:12:06;;;;;;;11.63;6.60;;;2.60;99.90;;;;;;5010092;28;20420;-60
2021/01/06 07:14:37;;;;;;;9.40;6.30;;;2.60;99.90;;;;;;5005576;28;20487;-59
2021/01/06 07:17:13;;;;;;;12.80;6.82;;;3.40;99.90;;;;;;5007720;28;20866;-59
2021/01/06 07:19:47;;;;;;;12.63;6.53;;;2.60;99.90;;;;;;5008564;28;20408;-60
2021/01/06 07:22:27;;;;;;;12.40;7.30;;;4.60;99.90;;;;;;5009374;28;20385;-59
2021/01/06 07:24:57;;;;;;;11.15;6.72;;;5.30;99.90;;;;;;5008923;28;20431;-59
2021/01/06 07:27:29;;;;;;;11.07;6.10;;;3.30;99.90;;;;;;5010568;28;20381;-56
2021/01/06 07:29:55;;;;;;;12.10;7.13;;;3.40;99.90;;;;;;5008823;28;20842;-60
2021/01/06 07:32:23;;;;;;;15.18;8.90;;;2.80;99.90;;;;;;5009359;28;20431;-57
2021/01/06 07:34:58;;;;;;;15.65;8.90;;;2.60;99.90;;;;;;5009381;28;20866;-60
2021/01/06 07:37:46;;;;;;;21.55;13.10;;;4.80;99.90;;;;;;5007629;28;20409;-57
2021/01/06 07:40:15;;;;;;;20.60;11.77;;;2.70;99.90;;;;;;5010597;28;20391;-59
2021/01/06 07:43:08;;;;;;;16.92;9.55;;;2.80;99.90;;;;;;5009582;28;20448;-59
2021/01/06 07:45:34;;;;;;;20.83;10.98;;;2.70;99.90;;;;;;5007214;28;20401;-59
2021/01/06 07:48:15;;;;;;;12.80;7.70;;;2.70;99.90;;;;;;5009147;28;20447;-58
2021/01/06 07:51:03;;;;;;;14.90;6.78;;;2.70;99.90;;;;;;5006736;28;20385;-60
2021/01/06 07:53:41;;;;;;;14.75;8.15;;;5.10;99.90;;;;;;4972884;28;20395;-60
2021/01/06 07:56:28;;;;;;;16.75;8.25;;;4.20;99.90;;;;;;5002562;28;20915;-60
2021/01/06 07:58:58;;;;;;;13.68;7.57;;;2.60;99.90;;;;;;5006157;28;20389;-60
2021/01/06 08:01:33;;;;;;;17.00;8.73;;;5.10;99.90;;;;;;5002754;28;20409;-57
2021/01/06 08:04:13;;;;;;;13.38;8.65;;;3.90;99.90;;;;;;5006034;28;20453;-58
2021/01/06 08:06:58;;;;;;;17.30;8.65;;;2.90;99.90;;;;;;5002618;28;20881;-59
2021/01/06 08:09:34;;;;;;;14.52;8.45;;;4.00;99.90;;;;;;5003011;28;20495;-56
2021/01/06 08:12:11;;;;;;;17.90;9.65;;;4.50;99.90;;;;;;5005954;28;20416;-59
2021/01/06 08:14:37;;;;;;;17.50;8.82;;;2.50;99.90;;;;;;5007475;28;20392;-60
2021/01/06 08:17:24;;;;;;;17.20;8.80;;;3.80;99.90;;;;;;5006497;28;20945;-60
2021/01/06 08:20:10;;;;;;;22.38;11.02;;;2.50;99.90;;;;;;5007156;28;20381;-61
2021/01/06 08:22:41;;;;;;;17.80;8.95;;;2.30;99.90;;;;;;5002772;28;20727;-59
2021/01/06 08:25:19;;;;;;;15.13;8.55;;;3.60;99.90;;;;;;5006726;28;20400;-60
2021/01/06 08:27:45;;;;;;;14.60;8.50;;;2.40;99.90;;;;;;5005986;28;20442;-59
2021/01/06 08:30:23;;;;;;;16.63;8.73;;;2.30;99.90;;;;;;5006736;28;20906;-59
2021/01/06 08:33:11;;;;;;;14.25;8.60;;;2.30;99.90;;;;;;5005700;28;20536;-59
2021/01/06 08:35:45;;;;;;;15.70;8.10;;;5.10;99.90;;;;;;5004952;28;20404;-59
2021/01/06 08:38:27;;;;;;;13.77;7.50;;;2.40;99.90;;;;;;5003857;28;20406;-59
2021/01/06 08:40:53;;;;;;;13.52;7.65;;;4.90;99.90;;;;;;5006850;28;20466;-60
2021/01/06 08:43:19;;;;;;;13.30;7.63;;;2.50;99.90;;;;;;5006998;28;20400;-62
2021/01/06 08:45:57;;;;;;;15.93;8.35;;;4.40;99.90;;;;;;5007870;28;20527;-59
2021/01/06 08:48:35;;;;;;;14.25;7.88;;;4.70;99.90;;;;;;5004962;28;20390;-59
2021/01/06 08:51:12;;;;;;;14.63;7.90;;;2.30;99.90;;;;;;5002932;28;20425;-61
2021/01/06 08:53:41;;;;;;;13.77;7.20;;;2.20;99.90;;;;;;5005173;28;20433;-59
2021/01/06 08:56:25;;;;;;;12.52;7.20;;;2.30;99.90;;;;;;5003649;28;20431;-58
2021/01/06 08:58:53;;;;;;;14.25;7.95;;;2.40;99.90;;;;;;5005215;28;20475;-59
2021/01/06 09:01:46;;;;;;;15.43;8.93;;;4.80;99.90;;;;;;5005137;28;20474;-59
2021/01/06 09:04:17;;;;;;;14.73;8.48;;;2.50;99.90;;;;;;5005474;28;20424;-57
2021/01/06 09:07:09;;;;;;;15.20;8.55;;;2.50;99.90;;;;;;5005300;28;20909;-59
2021/01/06 09:09:53;;;;;;;14.15;7.53;;;3.30;99.90;;;;;;5004163;28;20547;-59
2021/01/06 09:12:33;;;;;;;16.30;7.80;;;2.50;99.90;;;;;;5006567;28;20818;-60
2021/01/06 09:15:00;;;;;;;14.65;8.43;;;2.60;99.90;;;;;;5005996;28;20426;-58
2021/01/06 09:17:34;;;;;;;15.85;8.60;;;2.50;99.90;;;;;;5005055;28;20396;-56
2021/01/06 09:20:06;;;;;;;15.15;8.80;;;2.60;99.90;;;;;;5005933;28;20401;-57
2021/01/06 09:22:32;;;;;;;14.45;9.02;;;4.30;99.90;;;;;;5006141;28;20409;-60
2021/01/06 09:24:58;;;;;;;15.88;8.70;;;2.60;99.90;;;;;;5007063;28;20475;-60
2021/01/06 09:27:28;;;;;;;12.93;7.70;;;2.70;99.90;;;;;;5007516;28;20862;-57
2021/01/06 09:29:55;;;;;;;13.43;8.10;;;2.70;99.90;;;;;;5009044;28;20416;-59
2021/01/06 09:32:26;;;;;;;15.75;8.77;;;2.70;99.90;;;;;;5007336;28;20834;-60
2021/01/06 09:35:01;;;;;;;15.18;7.95;;;5.10;99.90;;;;;;5008053;28;20417;-60
2021/01/06 09:37:30;;;;;;;15.73;8.50;;;4.20;99.90;;;;;;5006904;28;20417;-63
2021/01/06 09:40:06;;;;;;;14.87;9.00;;;2.70;99.90;;;;;;5006408;28;21473;-60
2021/01/06 09:42:31;;;;;;;13.35;8.82;;;2.70;99.90;;;;;;5001736;28;20416;-59
2021/01/06 09:44:57;;;;;;;16.15;9.32;;;2.70;99.90;;;;;;5004487;28;20400;-60
2021/01/06 09:47:34;;;;;;;16.10;9.50;;;2.80;99.90;;;;;;5007283;28;20933;-59
2021/01/06 09:50:21;;;;;;;17.10;8.88;;;5.30;99.90;;;;;;5008660;28;20813;-58
2021/01/06 09:52:50;;;;;;;26.10;12.90;;;2.70;99.90;;;;;;5010248;28;20425;-58
2021/01/06 09:55:19;;;;;;;58.72;27.85;;;2.80;99.90;;;;;;5011845;28;20396;-59
2021/01/06 09:57:50;;;;;;;47.83;21.43;;;2.80;99.90;;;;;;5009145;28;20403;-59
2021/01/06 10:00:21;;;;;;;23.38;13.27;;;3.00;99.90;;;;;;5010932;28;20862;-59
2021/01/06 10:02:49;;;;;;;21.88;11.32;;;2.70;99.90;;;;;;5010124;28;20474;-59
2021/01/06 10:05:20;;;;;;;19.98;11.48;;;4.50;99.90;;;;;;5012377;28;20901;-58
2021/01/06 10:07:53;;;;;;;21.33;12.45;;;2.70;99.90;;;;;;5008754;28;20892;-59
2021/01/06 10:10:24;;;;;;;20.20;12.13;;;4.00;99.90;;;;;;5008430;28;20420;-60
2021/01/06 10:12:56;;;;;;;23.42;11.07;;;3.70;99.90;;;;;;5009446;28;20405;-58
2021/01/06 10:15:43;;;;;;;16.98;10.18;;;4.20;99.90;;;;;;5003202;28;20404;-58
2021/01/06 10:18:30;;;;;;;22.92;11.02;;;2.70;99.90;;;;;;5010778;28;20377;-59
2021/01/06 10:21:06;;;;;;;18.02;10.35;;;2.60;99.90;;;;;;5006492;28;20886;-60
2021/01/06 10:23:52;;;;;;;20.20;10.93;;;3.30;99.90;;;;;;5009039;28;20902;-59
2021/01/06 10:26:42;;;;;;;21.20;11.70;;;2.50;99.90;;;;;;5011507;28;20862;-60
2021/01/06 10:29:21;;;;;;;20.27;11.43;;;4.80;99.90;;;;;;5010435;28;20894;-58
2021/01/06 10:32:26;;;;;;;21.15;11.55;;;2.50;99.90;;;;;;5009752;28;20499;-60
2021/01/06 10:35:10;;;;;;;23.60;12.70;;;4.70;99.90;;;;;;5006546;28;20431;-59
2021/01/06 10:37:43;;;;;;;21.25;12.07;;;2.50;99.90;;;;;;5009223;28;20913;-61
2021/01/06 10:40:29;;;;;;;23.58;12.85;;;2.50;99.90;;;;;;5009752;28;20407;-60
2021/01/06 10:42:55;;;;;;;23.00;11.90;;;2.50;99.90;;;;;;5008911;28;20385;-60
2021/01/06 10:45:29;;;;;;;22.60;11.57;;;5.40;99.90;;;;;;5006153;28;20407;-59
2021/01/06 10:47:55;;;;;;;21.85;11.75;;;4.50;99.90;;;;;;5008414;28;20779;-62
2021/01/06 10:50:24;;;;;;;22.20;11.75;;;4.10;99.90;;;;;;5007611;28;20431;-60
2021/01/06 10:53:15;;;;;;;20.35;12.18;;;2.40;99.90;;;;;;5010560;28;20435;-62
2021/01/06 10:55:46;;;;;;;23.73;12.68;;;2.40;99.90;;;;;;5008925;28;20417;-63
2021/01/06 10:58:41;;;;;;;23.70;13.50;;;2.80;99.90;;;;;;5009136;28;20396;-60
2021/01/06 11:01:10;;;;;;;21.30;12.82;;;2.60;99.90;;;;;;5003520;28;20550;-60
2021/01/06 11:03:40;;;;;;;19.50;11.90;;;2.60;99.90;;;;;;5003909;28;20486;-60
2021/01/06 11:06:18;;;;;;;23.25;12.70;;;2.60;99.90;;;;;;5010349;28;20385;-59
2021/01/06 11:09:20;;;;;;;22.63;13.07;;;2.60;99.90;;;;;;5008763;28;20580;-59
2021/01/06 11:11:59;;;;;;;22.45;13.10;;;2.60;99.90;;;;;;5005175;28;20510;-58
2021/01/06 11:14:53;;;;;;;23.87;14.07;;;2.70;99.90;;;;;;5007896;28;20849;-57
2021/01/06 11:17:18;;;;;;;27.13;15.98;;;2.70;99.90;;;;;;5010323;28;20381;-58
2021/01/06 11:19:53;;;;;;;24.93;13.90;;;3.10;99.90;;;;;;5008097;28;20385;-58
2021/01/06 11:22:19;;;;;;;28.17;15.80;;;2.70;99.90;;;;;;5010437;28;21202;-58
2021/01/06 11:24:55;;;;;;;24.60;14.67;;;2.70;99.90;;;;;;5006100;28;20402;-58
2021/01/06 11:27:47;;;;;;;24.65;14.40;;;2.70;99.90;;;;;;5003879;28;20763;-59
2021/01/06 11:30:21;;;;;;;20.00;12.63;;;2.80;99.90;;;;;;5008537;28;20380;-58
2021/01/06 11:32:47;;;;;;;23.67;13.55;;;5.60;99.90;;;;;;5008355;28;20435;-58
2021/01/06 11:35:27;;;;;;;25.02;13.20;;;2.70;99.90;;;;;;5010196;28;20731;-58
2021/01/06 11:37:54;;;;;;;21.85;12.85;;;2.70;99.90;;;;;;5009089;28;20827;-58
2021/01/06 11:40:22;;;;;;;26.30;13.25;;;3.40;99.90;;;;;;5008675;28;20440;-58
2021/01/06 11:43:02;;;;;;;28.45;13.18;;;2.80;99.90;;;;;;5009265;28;20389;-58
2021/01/06 11:45:43;;;;;;;22.27;13.32;;;2.80;99.90;;;;;;5008232;28;20455;-58
2021/01/06 11:48:23;;;;;;;25.38;13.18;;;2.70;99.90;;;;;;5009975;28;20373;-58
2021/01/06 11:50:50;;;;;;;22.45;12.40;;;3.30;99.90;;;;;;5007805;28;20393;-57
2021/01/06 11:53:32;;;;;;;23.45;13.35;;;3.40;99.90;;;;;;5007162;28;20397;-58
2021/01/06 11:56:20;;;;;;;22.93;12.73;;;2.60;99.90;;;;;;5009173;28;20447;-58
2021/01/06 11:59:10;;;;;;;22.25;12.85;;;2.60;99.90;;;;;;5007367;28;20515;-58
2021/01/06 12:01:57;;;;;;;22.08;13.20;;;2.60;99.90;;;;;;5005322;28;20499;-57
2021/01/06 12:04:32;;;;;;;23.52;13.00;;;2.60;99.90;;;;;;5007254;28;20439;-57
2021/01/06 12:07:15;;;;;;;24.98;14.50;;;2.70;99.90;;;;;;5009522;28;20396;-58
2021/01/06 12:10:14;;;;;;;24.40;13.55;;;2.70;99.90;;;;;;5007710;28;20397;-59
2021/01/06 12:12:46;;;;;;;22.92;12.10;;;2.80;99.90;;;;;;5005042;28;20423;-58
2021/01/06 12:15:32;;;;;;;25.77;13.60;;;2.70;99.90;;;;;;5008040;28;20403;-57
2021/01/06 12:18:02;;;;;;;22.58;13.40;;;2.60;99.90;;;;;;5006636;28;20822;-59
2021/01/06 12:20:35;;;;;;;24.02;13.07;;;2.60;99.90;;;;;;5002957;28;20728;-57
2021/01/06 12:23:23;;;;;;;23.75;12.68;;;2.60;99.90;;;;;;5002769;28;20955;-57
2021/01/06 12:25:56;;;;;;;21.93;12.53;;;3.30;99.90;;;;;;5005628;28;20401;-59
2021/01/06 12:28:25;;;;;;;23.75;12.88;;;2.60;99.90;;;;;;5005082;28;20400;-57
2021/01/06 12:31:08;;;;;;;20.23;11.65;;;2.60;99.90;;;;;;5006163;28;20404;-58
2021/01/06 12:33:38;;;;;;;19.47;11.40;;;2.60;99.90;;;;;;5005212;28;20432;-57
2021/01/06 12:36:27;;;;;;;22.52;12.05;;;2.50;99.90;;;;;;5005942;28;20396;-60
2021/01/06 12:39:13;;;;;;;23.50;11.63;;;2.50;99.90;;;;;;5008244;28;20464;-58
2021/01/06 12:41:51;;;;;;;20.75;11.43;;;2.80;99.90;;;;;;5006015;28;20874;-57
2021/01/06 12:44:24;;;;;;;20.95;11.50;;;2.50;99.90;;;;;;5007088;28;20396;-58
2021/01/06 12:46:58;;;;;;;26.65;12.68;;;2.30;99.90;;;;;;5007663;28;20862;-57
2021/01/06 12:49:39;;;;;;;21.33;11.77;;;2.30;99.90;;;;;;5006756;28;20397;-56
2021/01/06 12:52:37;;;;;;;21.77;11.65;;;2.30;99.90;;;;;;5007614;28;20437;-57
2021/01/06 12:55:15;;;;;;;22.80;11.60;;;2.40;99.90;;;;;;5006834;28;20770;-57
2021/01/06 12:58:15;;;;;;;22.40;12.02;;;2.50;99.90;;;;;;5006947;28;20397;-58
2021/01/06 13:00:44;;;;;;;21.17;11.37;;;2.60;99.90;;;;;;5006686;28;20505;-57
2021/01/06 13:03:28;;;;;;;18.50;10.68;;;2.50;99.90;;;;;;5007719;28;20401;-58
2021/01/06 13:05:59;;;;;;;19.90;11.07;;;3.60;99.90;;;;;;5005961;28;20504;-58
2021/01/06 13:08:49;;;;;;;19.60;10.73;;;4.70;99.90;;;;;;5006764;28;20719;-58
2021/01/06 13:11:26;;;;;;;18.70;10.67;;;2.40;99.90;;;;;;5007710;28;20470;-58
2021/01/06 13:14:04;;;;;;;19.55;10.70;;;4.70;99.90;;;;;;5005871;28;20412;-58
2021/01/06 13:16:36;;;;;;;18.67;9.70;;;4.90;99.90;;;;;;5004365;28;20396;-57
2021/01/06 13:19:05;;;;;;;20.70;10.68;;;2.40;99.90;;;;;;5003996;28;20419;-57